sensor_id;sensor_type;location;lat;lon;timestamp;P1;durP1;ratioP1;P2;durP2;ratioP2
19384;SDS011;9828;54.122;17.974;2022-08-05T00:04:02;6.13;;;5.50;;
19384;SDS011;9828;54.122;17.974;2022-08-05T00:09:24;6.13;;;5.32;;
19384;SDS011;9828;54.122;17.974;2022-08-05T00:14:46;7.53;;;5.25;;
19384;SDS011;9828;54.122;17.974;2022-08-05T00:20:07;5.43;;;4.82;;
19384;SDS011;9828;54.122;17.974;2022-08-05T00:25:29;5.97;;;5.35;;
19384;SDS011;9828;54.122;17.974;2022-08-05T00:30:50;6.60;;;5.55;;
19384;SDS011;9828;54.122;17.974;2022-08-05T00:36:11;6.53;;;5.13;;
19384;SDS011;9828;54.122;17.974;2022-08-05T00:41:34;8.45;;;5.28;;
19384;SDS011;9828;54.122;17.974;2022-08-05T00:46:55;8.40;;;5.72;;
19384;SDS011;9828;54.122;17.974;2022-08-05T00:52:17;7.18;;;5.57;;
19384;SDS011;9828;54.122;17.974;2022-08-05T00:57:39;7.63;;;6.28;;
19384;SDS011;9828;54.122;17.974;2022-08-05T01:03:00;9.45;;;5.85;;
19384;SDS011;9828;54.122;17.974;2022-08-05T01:08:22;9.15;;;6.35;;
19384;SDS011;9828;54.122;17.974;2022-08-05T01:19:32;6.65;;;5.38;;
19384;SDS011;9828;54.122;17.974;2022-08-05T01:30:34;5.93;;;5.25;;
19384;SDS011;9828;54.122;17.974;2022-08-05T01:35:59;6.50;;;5.25;;
19384;SDS011;9828;54.122;17.974;2022-08-05T01:41:26;7.00;;;5.40;;
19384;SDS011;9828;54.122;17.974;2022-08-05T01:46:52;7.47;;;5.40;;
19384;SDS011;9828;54.122;17.974;2022-08-05T01:52:14;6.80;;;5.15;;
19384;SDS011;9828;54.122;17.974;2022-08-05T01:57:39;5.90;;;5.30;;
19384;SDS011;9828;54.122;17.974;2022-08-05T02:03:05;5.15;;;4.60;;
19384;SDS011;9828;54.122;17.974;2022-08-05T02:08:31;5.60;;;4.55;;
19384;SDS011;9828;54.122;17.974;2022-08-05T02:14:01;5.80;;;4.90;;
19384;SDS011;9828;54.122;17.974;2022-08-05T02:19:32;6.32;;;4.95;;
19384;SDS011;9828;54.122;17.974;2022-08-05T02:25:07;9.25;;;5.10;;
19384;SDS011;9828;54.122;17.974;2022-08-05T02:30:43;13.45;;;5.70;;
19384;SDS011;9828;54.122;17.974;2022-08-05T02:36:08;9.43;;;5.55;;
19384;SDS011;9828;54.122;17.974;2022-08-05T02:41:32;6.43;;;5.07;;
19384;SDS011;9828;54.122;17.974;2022-08-05T02:46:54;7.20;;;5.10;;
19384;SDS011;9828;54.122;17.974;2022-08-05T02:52:17;9.13;;;5.38;;
19384;SDS011;9828;54.122;17.974;2022-08-05T02:57:39;5.88;;;5.18;;
19384;SDS011;9828;54.122;17.974;2022-08-05T03:03:01;7.63;;;5.30;;
19384;SDS011;9828;54.122;17.974;2022-08-05T03:08:24;6.63;;;5.45;;
19384;SDS011;9828;54.122;17.974;2022-08-05T03:13:45;5.70;;;5.20;;
19384;SDS011;9828;54.122;17.974;2022-08-05T03:19:07;7.30;;;6.18;;
19384;SDS011;9828;54.122;17.974;2022-08-05T03:24:28;7.00;;;5.20;;
19384;SDS011;9828;54.122;17.974;2022-08-05T03:29:50;7.47;;;5.43;;
19384;SDS011;9828;54.122;17.974;2022-08-05T03:35:11;6.50;;;5.80;;
19384;SDS011;9828;54.122;17.974;2022-08-05T03:40:33;6.97;;;4.88;;
19384;SDS011;9828;54.122;17.974;2022-08-05T03:45:59;7.05;;;5.25;;
19384;SDS011;9828;54.122;17.974;2022-08-05T03:51:23;5.63;;;5.13;;
19384;SDS011;9828;54.122;17.974;2022-08-05T03:56:50;7.00;;;6.00;;
19384;SDS011;9828;54.122;17.974;2022-08-05T04:02:12;6.00;;;5.40;;
19384;SDS011;9828;54.122;17.974;2022-08-05T04:07:34;6.72;;;5.53;;
19384;SDS011;9828;54.122;17.974;2022-08-05T04:12:58;9.43;;;6.22;;
19384;SDS011;9828;54.122;17.974;2022-08-05T04:18:21;6.10;;;5.25;;
19384;SDS011;9828;54.122;17.974;2022-08-05T04:23:46;7.18;;;5.47;;
19384;SDS011;9828;54.122;17.974;2022-08-05T04:29:08;7.20;;;5.78;;
19384;SDS011;9828;54.122;17.974;2022-08-05T04:34:29;7.18;;;5.55;;
19384;SDS011;9828;54.122;17.974;2022-08-05T04:39:53;8.13;;;5.55;;
19384;SDS011;9828;54.122;17.974;2022-08-05T04:45:16;7.85;;;5.80;;
19384;SDS011;9828;54.122;17.974;2022-08-05T04:50:41;10.13;;;5.60;;
19384;SDS011;9828;54.122;17.974;2022-08-05T04:56:07;8.45;;;5.40;;
19384;SDS011;9828;54.122;17.974;2022-08-05T05:01:29;6.13;;;5.22;;
19384;SDS011;9828;54.122;17.974;2022-08-05T05:06:50;6.13;;;5.53;;
19384;SDS011;9828;54.122;17.974;2022-08-05T05:12:11;8.50;;;4.88;;
19384;SDS011;9828;54.122;17.974;2022-08-05T05:17:36;10.18;;;5.30;;
19384;SDS011;9828;54.122;17.974;2022-08-05T05:22:59;5.05;;;4.55;;
19384;SDS011;9828;54.122;17.974;2022-08-05T05:28:26;7.90;;;5.10;;
19384;SDS011;9828;54.122;17.974;2022-08-05T05:33:47;5.38;;;4.88;;
19384;SDS011;9828;54.122;17.974;2022-08-05T05:39:08;5.32;;;4.18;;
19384;SDS011;9828;54.122;17.974;2022-08-05T05:44:30;4.97;;;4.10;;
19384;SDS011;9828;54.122;17.974;2022-08-05T05:49:53;6.72;;;4.57;;
19384;SDS011;9828;54.122;17.974;2022-08-05T05:55:15;4.53;;;3.50;;
19384;SDS011;9828;54.122;17.974;2022-08-05T06:00:37;5.38;;;3.90;;
19384;SDS011;9828;54.122;17.974;2022-08-05T06:05:59;7.70;;;3.55;;
19384;SDS011;9828;54.122;17.974;2022-08-05T06:11:20;4.75;;;3.63;;
19384;SDS011;9828;54.122;17.974;2022-08-05T06:16:41;8.82;;;3.63;;
19384;SDS011;9828;54.122;17.974;2022-08-05T06:22:03;11.25;;;3.45;;
19384;SDS011;9828;54.122;17.974;2022-08-05T06:27:25;3.58;;;3.28;;
19384;SDS011;9828;54.122;17.974;2022-08-05T06:32:46;5.38;;;4.10;;
19384;SDS011;9828;54.122;17.974;2022-08-05T06:38:07;3.90;;;3.50;;
19384;SDS011;9828;54.122;17.974;2022-08-05T06:43:29;7.55;;;4.32;;
19384;SDS011;9828;54.122;17.974;2022-08-05T06:48:52;4.63;;;3.55;;
19384;SDS011;9828;54.122;17.974;2022-08-05T06:54:13;5.35;;;3.08;;
19384;SDS011;9828;54.122;17.974;2022-08-05T06:59:34;6.10;;;3.53;;
19384;SDS011;9828;54.122;17.974;2022-08-05T07:04:55;5.53;;;3.90;;
19384;SDS011;9828;54.122;17.974;2022-08-05T07:10:16;6.65;;;3.60;;
19384;SDS011;9828;54.122;17.974;2022-08-05T07:15:38;4.75;;;3.05;;
19384;SDS011;9828;54.122;17.974;2022-08-05T07:21:18;8.57;;;3.42;;
19384;SDS011;9828;54.122;17.974;2022-08-05T07:26:43;6.15;;;3.42;;
19384;SDS011;9828;54.122;17.974;2022-08-05T07:32:05;6.05;;;3.47;;
19384;SDS011;9828;54.122;17.974;2022-08-05T07:37:26;4.00;;;3.38;;
19384;SDS011;9828;54.122;17.974;2022-08-05T07:42:48;12.18;;;3.78;;
19384;SDS011;9828;54.122;17.974;2022-08-05T07:48:09;30.27;;;6.80;;
19384;SDS011;9828;54.122;17.974;2022-08-05T07:53:31;4.07;;;3.15;;
19384;SDS011;9828;54.122;17.974;2022-08-05T07:58:52;4.53;;;3.90;;
19384;SDS011;9828;54.122;17.974;2022-08-05T08:04:14;4.05;;;3.42;;
19384;SDS011;9828;54.122;17.974;2022-08-05T08:09:37;17.55;;;4.10;;
19384;SDS011;9828;54.122;17.974;2022-08-05T08:14:59;21.70;;;4.43;;
19384;SDS011;9828;54.122;17.974;2022-08-05T08:20:21;19.52;;;4.80;;
19384;SDS011;9828;54.122;17.974;2022-08-05T08:25:44;4.65;;;3.20;;
19384;SDS011;9828;54.122;17.974;2022-08-05T08:31:06;9.27;;;3.55;;
19384;SDS011;9828;54.122;17.974;2022-08-05T08:36:28;6.38;;;3.38;;
19384;SDS011;9828;54.122;17.974;2022-08-05T08:42:01;5.88;;;3.63;;
19384;SDS011;9828;54.122;17.974;2022-08-05T08:47:25;6.18;;;3.45;;
19384;SDS011;9828;54.122;17.974;2022-08-05T08:52:49;6.63;;;3.10;;
19384;SDS011;9828;54.122;17.974;2022-08-05T08:58:16;10.60;;;3.20;;
19384;SDS011;9828;54.122;17.974;2022-08-05T09:03:39;9.07;;;3.13;;
19384;SDS011;9828;54.122;17.974;2022-08-05T09:09:00;4.85;;;3.28;;
19384;SDS011;9828;54.122;17.974;2022-08-05T09:14:22;6.95;;;3.35;;
19384;SDS011;9828;54.122;17.974;2022-08-05T09:19:44;4.97;;;3.33;;
19384;SDS011;9828;54.122;17.974;2022-08-05T09:25:05;7.20;;;3.40;;
19384;SDS011;9828;54.122;17.974;2022-08-05T09:30:27;14.68;;;5.32;;
19384;SDS011;9828;54.122;17.974;2022-08-05T09:36:06;10.75;;;3.33;;
19384;SDS011;9828;54.122;17.974;2022-08-05T09:41:27;4.55;;;3.13;;
19384;SDS011;9828;54.122;17.974;2022-08-05T09:46:49;7.43;;;3.42;;
19384;SDS011;9828;54.122;17.974;2022-08-05T09:52:30;4.10;;;3.30;;
19384;SDS011;9828;54.122;17.974;2022-08-05T09:57:54;6.90;;;2.85;;
19384;SDS011;9828;54.122;17.974;2022-08-05T10:03:15;7.93;;;2.55;;
19384;SDS011;9828;54.122;17.974;2022-08-05T10:08:37;9.40;;;4.53;;
19384;SDS011;9828;54.122;17.974;2022-08-05T10:13:58;9.05;;;3.60;;
19384;SDS011;9828;54.122;17.974;2022-08-05T10:19:40;36.47;;;4.68;;
19384;SDS011;9828;54.122;17.974;2022-08-05T10:25:02;4.90;;;2.83;;
19384;SDS011;9828;54.122;17.974;2022-08-05T10:30:24;4.03;;;2.78;;
19384;SDS011;9828;54.122;17.974;2022-08-05T10:35:45;4.55;;;3.08;;
19384;SDS011;9828;54.122;17.974;2022-08-05T10:46:49;3.40;;;2.60;;
19384;SDS011;9828;54.122;17.974;2022-08-05T10:52:12;116.45;;;10.38;;
19384;SDS011;9828;54.122;17.974;2022-08-05T10:58:08;2.92;;;2.60;;
19384;SDS011;9828;54.122;17.974;2022-08-05T11:03:30;4.72;;;2.83;;
19384;SDS011;9828;54.122;17.974;2022-08-05T11:09:12;8.20;;;3.20;;
19384;SDS011;9828;54.122;17.974;2022-08-05T11:14:37;5.65;;;2.75;;
19384;SDS011;9828;54.122;17.974;2022-08-05T11:26:20;4.88;;;3.30;;
19384;SDS011;9828;54.122;17.974;2022-08-05T11:31:43;10.35;;;3.42;;
19384;SDS011;9828;54.122;17.974;2022-08-05T11:37:05;6.28;;;3.05;;
19384;SDS011;9828;54.122;17.974;2022-08-05T11:42:26;5.82;;;2.50;;
19384;SDS011;9828;54.122;17.974;2022-08-05T11:47:48;3.72;;;3.33;;
19384;SDS011;9828;54.122;17.974;2022-08-05T11:53:10;2.92;;;2.60;;
19384;SDS011;9828;54.122;17.974;2022-08-05T11:58:35;7.45;;;3.00;;
19384;SDS011;9828;54.122;17.974;2022-08-05T12:04:00;11.90;;;3.53;;
19384;SDS011;9828;54.122;17.974;2022-08-05T12:09:23;4.93;;;3.17;;
19384;SDS011;9828;54.122;17.974;2022-08-05T12:14:46;3.20;;;2.75;;
19384;SDS011;9828;54.122;17.974;2022-08-05T12:20:07;3.42;;;2.90;;
19384;SDS011;9828;54.122;17.974;2022-08-05T12:25:29;10.80;;;3.28;;
19384;SDS011;9828;54.122;17.974;2022-08-05T12:30:51;8.60;;;2.67;;
19384;SDS011;9828;54.122;17.974;2022-08-05T12:36:12;7.75;;;2.55;;
19384;SDS011;9828;54.122;17.974;2022-08-05T12:41:35;5.18;;;2.95;;
19384;SDS011;9828;54.122;17.974;2022-08-05T12:46:58;8.20;;;2.67;;
19384;SDS011;9828;54.122;17.974;2022-08-05T12:52:20;3.13;;;2.75;;
19384;SDS011;9828;54.122;17.974;2022-08-05T12:57:44;6.88;;;2.55;;
19384;SDS011;9828;54.122;17.974;2022-08-05T13:03:06;6.03;;;3.00;;
19384;SDS011;9828;54.122;17.974;2022-08-05T13:08:28;9.02;;;3.00;;
19384;SDS011;9828;54.122;17.974;2022-08-05T13:13:51;4.38;;;2.38;;
19384;SDS011;9828;54.122;17.974;2022-08-05T13:19:16;5.85;;;2.63;;
19384;SDS011;9828;54.122;17.974;2022-08-05T13:24:39;4.03;;;2.50;;
19384;SDS011;9828;54.122;17.974;2022-08-05T13:30:01;4.03;;;2.40;;
19384;SDS011;9828;54.122;17.974;2022-08-05T13:35:23;2.55;;;2.25;;
19384;SDS011;9828;54.122;17.974;2022-08-05T13:40:45;12.85;;;5.55;;
19384;SDS011;9828;54.122;17.974;2022-08-05T13:46:06;88.35;;;8.65;;
19384;SDS011;9828;54.122;17.974;2022-08-05T13:51:29;10.85;;;3.28;;
19384;SDS011;9828;54.122;17.974;2022-08-05T13:56:52;8.45;;;3.00;;
19384;SDS011;9828;54.122;17.974;2022-08-05T14:02:14;4.85;;;2.40;;
19384;SDS011;9828;54.122;17.974;2022-08-05T14:07:37;10.52;;;3.00;;
19384;SDS011;9828;54.122;17.974;2022-08-05T14:13:03;5.85;;;2.78;;
19384;SDS011;9828;54.122;17.974;2022-08-05T14:18:28;3.17;;;2.80;;
19384;SDS011;9828;54.122;17.974;2022-08-05T14:23:50;4.32;;;2.63;;
19384;SDS011;9828;54.122;17.974;2022-08-05T14:29:11;2.95;;;2.75;;
19384;SDS011;9828;54.122;17.974;2022-08-05T14:34:33;8.55;;;2.88;;
19384;SDS011;9828;54.122;17.974;2022-08-05T14:39:55;4.93;;;3.42;;
19384;SDS011;9828;54.122;17.974;2022-08-05T14:45:16;5.82;;;2.78;;
19384;SDS011;9828;54.122;17.974;2022-08-05T14:50:37;8.63;;;4.32;;
19384;SDS011;9828;54.122;17.974;2022-08-05T14:55:59;7.90;;;4.88;;
19384;SDS011;9828;54.122;17.974;2022-08-05T15:01:20;7.00;;;5.22;;
19384;SDS011;9828;54.122;17.974;2022-08-05T15:06:44;9.93;;;5.57;;
19384;SDS011;9828;54.122;17.974;2022-08-05T15:12:07;9.55;;;5.72;;
19384;SDS011;9828;54.122;17.974;2022-08-05T15:17:29;16.70;;;5.68;;
19384;SDS011;9828;54.122;17.974;2022-08-05T15:22:50;38.23;;;7.73;;
19384;SDS011;9828;54.122;17.974;2022-08-05T15:28:12;8.02;;;5.55;;
19384;SDS011;9828;54.122;17.974;2022-08-05T15:33:34;9.60;;;5.75;;
19384;SDS011;9828;54.122;17.974;2022-08-05T15:38:55;15.60;;;6.82;;
19384;SDS011;9828;54.122;17.974;2022-08-05T15:44:16;13.15;;;6.65;;
19384;SDS011;9828;54.122;17.974;2022-08-05T15:49:38;16.80;;;6.60;;
19384;SDS011;9828;54.122;17.974;2022-08-05T15:55:06;9.60;;;5.60;;
19384;SDS011;9828;54.122;17.974;2022-08-05T16:00:29;11.20;;;5.97;;
19384;SDS011;9828;54.122;17.974;2022-08-05T16:05:54;7.97;;;6.20;;
19384;SDS011;9828;54.122;17.974;2022-08-05T16:11:16;12.23;;;6.50;;
19384;SDS011;9828;54.122;17.974;2022-08-05T16:16:37;9.48;;;6.13;;
19384;SDS011;9828;54.122;17.974;2022-08-05T16:21:59;8.40;;;6.68;;
19384;SDS011;9828;54.122;17.974;2022-08-05T16:27:21;9.57;;;6.55;;
19384;SDS011;9828;54.122;17.974;2022-08-05T16:32:43;7.15;;;6.38;;
19384;SDS011;9828;54.122;17.974;2022-08-05T16:38:04;12.45;;;6.30;;
19384;SDS011;9828;54.122;17.974;2022-08-05T16:43:27;11.90;;;6.07;;
19384;SDS011;9828;54.122;17.974;2022-08-05T16:48:50;6.90;;;4.95;;
19384;SDS011;9828;54.122;17.974;2022-08-05T16:54:12;11.68;;;5.75;;
19384;SDS011;9828;54.122;17.974;2022-08-05T16:59:33;15.88;;;5.53;;
19384;SDS011;9828;54.122;17.974;2022-08-05T17:04:54;6.70;;;4.80;;
19384;SDS011;9828;54.122;17.974;2022-08-05T17:10:16;23.27;;;5.68;;
19384;SDS011;9828;54.122;17.974;2022-08-05T17:15:37;11.05;;;4.60;;
19384;SDS011;9828;54.122;17.974;2022-08-05T17:20:58;25.23;;;4.78;;
19384;SDS011;9828;54.122;17.974;2022-08-05T17:26:20;8.80;;;5.18;;
19384;SDS011;9828;54.122;17.974;2022-08-05T17:31:41;15.80;;;6.90;;
19384;SDS011;9828;54.122;17.974;2022-08-05T17:37:03;9.98;;;6.68;;
19384;SDS011;9828;54.122;17.974;2022-08-05T17:42:24;7.93;;;6.07;;
19384;SDS011;9828;54.122;17.974;2022-08-05T17:47:49;10.82;;;7.00;;
19384;SDS011;9828;54.122;17.974;2022-08-05T17:53:13;6.53;;;5.70;;
19384;SDS011;9828;54.122;17.974;2022-08-05T17:58:34;7.35;;;5.70;;
19384;SDS011;9828;54.122;17.974;2022-08-05T18:03:57;6.40;;;5.65;;
19384;SDS011;9828;54.122;17.974;2022-08-05T18:09:19;6.72;;;5.78;;
19384;SDS011;9828;54.122;17.974;2022-08-05T18:14:40;7.97;;;6.13;;
19384;SDS011;9828;54.122;17.974;2022-08-05T18:20:02;9.63;;;6.88;;
19384;SDS011;9828;54.122;17.974;2022-08-05T18:25:24;6.65;;;5.80;;
19384;SDS011;9828;54.122;17.974;2022-08-05T18:30:46;9.10;;;6.60;;
19384;SDS011;9828;54.122;17.974;2022-08-05T18:36:08;9.10;;;6.35;;
19384;SDS011;9828;54.122;17.974;2022-08-05T18:41:31;8.10;;;6.95;;
19384;SDS011;9828;54.122;17.974;2022-08-05T18:46:52;11.13;;;7.88;;
19384;SDS011;9828;54.122;17.974;2022-08-05T18:52:14;12.63;;;9.77;;
19384;SDS011;9828;54.122;17.974;2022-08-05T18:57:55;6.95;;;6.28;;
19384;SDS011;9828;54.122;17.974;2022-08-05T19:03:16;8.07;;;6.13;;
19384;SDS011;9828;54.122;17.974;2022-08-05T19:08:38;7.63;;;5.45;;
19384;SDS011;9828;54.122;17.974;2022-08-05T19:13:59;6.85;;;6.13;;
19384;SDS011;9828;54.122;17.974;2022-08-05T19:19:21;10.07;;;6.68;;
19384;SDS011;9828;54.122;17.974;2022-08-05T19:24:42;9.90;;;6.25;;
19384;SDS011;9828;54.122;17.974;2022-08-05T19:30:04;8.50;;;6.57;;
19384;SDS011;9828;54.122;17.974;2022-08-05T19:35:27;6.43;;;5.82;;
19384;SDS011;9828;54.122;17.974;2022-08-05T19:40:48;9.23;;;6.63;;
19384;SDS011;9828;54.122;17.974;2022-08-05T19:46:09;9.15;;;6.25;;
19384;SDS011;9828;54.122;17.974;2022-08-05T19:51:31;12.02;;;6.07;;
19384;SDS011;9828;54.122;17.974;2022-08-05T19:56:53;6.03;;;5.45;;
19384;SDS011;9828;54.122;17.974;2022-08-05T20:02:14;7.75;;;5.35;;
19384;SDS011;9828;54.122;17.974;2022-08-05T20:07:36;5.72;;;5.00;;
19384;SDS011;9828;54.122;17.974;2022-08-05T20:12:57;4.85;;;4.00;;
19384;SDS011;9828;54.122;17.974;2022-08-05T20:18:18;6.30;;;4.38;;
19384;SDS011;9828;54.122;17.974;2022-08-05T20:23:40;6.00;;;4.38;;
19384;SDS011;9828;54.122;17.974;2022-08-05T20:29:02;5.50;;;4.72;;
19384;SDS011;9828;54.122;17.974;2022-08-05T20:34:23;7.40;;;4.57;;
19384;SDS011;9828;54.122;17.974;2022-08-05T20:39:45;6.72;;;4.60;;
19384;SDS011;9828;54.122;17.974;2022-08-05T20:45:06;5.78;;;4.68;;
19384;SDS011;9828;54.122;17.974;2022-08-05T20:50:29;7.68;;;5.07;;
19384;SDS011;9828;54.122;17.974;2022-08-05T20:55:50;5.43;;;4.68;;
19384;SDS011;9828;54.122;17.974;2022-08-05T21:01:11;7.30;;;5.68;;
19384;SDS011;9828;54.122;17.974;2022-08-05T21:06:33;5.40;;;4.90;;
19384;SDS011;9828;54.122;17.974;2022-08-05T21:11:55;7.88;;;5.53;;
19384;SDS011;9828;54.122;17.974;2022-08-05T21:17:16;10.07;;;5.78;;
19384;SDS011;9828;54.122;17.974;2022-08-05T21:22:37;5.55;;;4.80;;
19384;SDS011;9828;54.122;17.974;2022-08-05T21:27:59;5.78;;;5.07;;
19384;SDS011;9828;54.122;17.974;2022-08-05T21:33:22;6.95;;;5.28;;
19384;SDS011;9828;54.122;17.974;2022-08-05T21:38:44;5.82;;;4.90;;
19384;SDS011;9828;54.122;17.974;2022-08-05T21:44:05;7.78;;;4.90;;
19384;SDS011;9828;54.122;17.974;2022-08-05T21:49:26;5.25;;;4.55;;
19384;SDS011;9828;54.122;17.974;2022-08-05T21:54:47;6.13;;;5.00;;
19384;SDS011;9828;54.122;17.974;2022-08-05T22:00:09;6.03;;;4.47;;
19384;SDS011;9828;54.122;17.974;2022-08-05T22:05:32;5.63;;;5.03;;
19384;SDS011;9828;54.122;17.974;2022-08-05T22:10:53;5.88;;;4.50;;
19384;SDS011;9828;54.122;17.974;2022-08-05T22:16:14;8.02;;;5.47;;
19384;SDS011;9828;54.122;17.974;2022-08-05T22:21:45;9.95;;;5.43;;
19384;SDS011;9828;54.122;17.974;2022-08-05T22:27:06;5.97;;;4.20;;
19384;SDS011;9828;54.122;17.974;2022-08-05T22:32:46;5.57;;;4.00;;
19384;SDS011;9828;54.122;17.974;2022-08-05T22:38:07;5.88;;;4.30;;
19384;SDS011;9828;54.122;17.974;2022-08-05T22:43:29;8.18;;;3.83;;
19384;SDS011;9828;54.122;17.974;2022-08-05T22:48:50;6.35;;;4.65;;
19384;SDS011;9828;54.122;17.974;2022-08-05T22:54:12;6.10;;;3.45;;
19384;SDS011;9828;54.122;17.974;2022-08-05T22:59:33;5.47;;;3.90;;
19384;SDS011;9828;54.122;17.974;2022-08-05T23:04:54;6.68;;;3.95;;
19384;SDS011;9828;54.122;17.974;2022-08-05T23:10:18;5.13;;;3.47;;
19384;SDS011;9828;54.122;17.974;2022-08-05T23:15:40;4.22;;;3.20;;
19384;SDS011;9828;54.122;17.974;2022-08-05T23:21:01;6.57;;;3.40;;
19384;SDS011;9828;54.122;17.974;2022-08-05T23:26:23;5.10;;;2.65;;
19384;SDS011;9828;54.122;17.974;2022-08-05T23:31:44;4.53;;;3.35;;
19384;SDS011;9828;54.122;17.974;2022-08-05T23:37:05;6.32;;;2.80;;
19384;SDS011;9828;54.122;17.974;2022-08-05T23:42:26;5.88;;;2.80;;
19384;SDS011;9828;54.122;17.974;2022-08-05T23:47:48;2.83;;;2.55;;
19384;SDS011;9828;54.122;17.974;2022-08-05T23:53:09;4.25;;;2.75;;
19384;SDS011;9828;54.122;17.974;2022-08-05T23:58:30;6.55;;;2.67;;
